Time;durP1;ratioP1;P1;durP2;ratioP2;P2;SDS_P1;SDS_P2;PMS_P1;PMS_P2;Temp;Humidity;BMP_temperature;BMP_pressure;BME280_temperature;BME280_humidity;BME280_pressure;Samples;Min_cycle;Max_cycle;Signal;HPM_P1;HPM_P2
2023/10/05 00:01:27;;;;;;;0.73;0.65;;;;;;;;;;5028041;28;20061;-71
2023/10/05 00:03:55;;;;;;;0.00;0.00;;;;;;;;;;5023055;28;20057;-71
2023/10/05 00:06:27;;;;;;;13.05;12.18;;;;;;;;;;5025543;28;20056;-71
2023/10/05 00:08:59;;;;;;;25.42;10.32;;;;;;;;;;5025855;28;20053;-70
2023/10/05 00:11:30;;;;;;;3.55;3.40;;;;;;;;;;5024983;28;20048;-70
2023/10/05 00:13:58;;;;;;;0.03;0.03;;;;;;;;;;5022026;28;20088;-70
2023/10/05 00:16:36;;;;;;;7.50;7.10;;;;;;;;;;5026181;28;20392;-71
2023/10/05 00:19:11;;;;;;;0.10;0.10;;;;;;;;;;5029011;28;20045;-70
2023/10/05 00:21:48;;;;;;;0.20;0.20;;;;;;;;;;5029652;28;20053;-70
2023/10/05 00:24:23;;;;;;;0.17;0.17;;;;;;;;;;5029302;28;20068;-71
2023/10/05 00:26:50;;;;;;;5.88;5.47;;;;;;;;;;5028126;28;20049;-71
2023/10/05 00:29:21;;;;;;;0.20;0.20;;;;;;;;;;5018909;28;20426;-70
2023/10/05 00:31:48;;;;;;;0.28;0.28;;;;;;;;;;5020815;28;20049;-71
2023/10/05 00:34:24;;;;;;;0.10;0.10;;;;;;;;;;5026989;28;20061;-70
2023/10/05 00:36:58;;;;;;;0.00;0.00;;;;;;;;;;5022830;28;20048;-70
2023/10/05 00:39:29;;;;;;;0.10;0.10;;;;;;;;;;5021625;28;20041;-70
2023/10/05 00:44:30;;;;;;;;;;;;;;;;;;5026704;28;20514;-70
2023/10/05 00:47:06;;;;;;;0.47;0.47;;;;;;;;;;5023578;28;19921;-70
2023/10/05 00:49:59;;;;;;;0.10;0.10;;;;;;;;;;5016643;28;20049;-70
2023/10/05 00:52:30;;;;;;;0.00;0.00;;;;;;;;;;5036142;28;20115;-70
2023/10/05 00:54:59;;;;;;;0.20;0.20;;;;;;;;;;5016277;28;20132;-70
2023/10/05 00:57:28;;;;;;;0.55;0.55;;;;;;;;;;5025598;28;20049;-70
2023/10/05 01:02:43;;;;;;;4.25;1.30;;;;;;;;;;5028173;28;20123;-71
2023/10/05 01:05:25;;;;;;;0.30;0.30;;;;;;;;;;5021007;28;20535;-70
2023/10/05 01:07:56;;;;;;;0.10;0.10;;;;;;;;;;5019721;28;20045;-70
2023/10/05 01:12:54;;;;;;;3.15;3.05;;;;;;;;;;5022980;28;20376;-71
2023/10/05 01:15:24;;;;;;;0.60;0.60;;;;;;;;;;5020486;28;20041;-71
2023/10/05 01:17:52;;;;;;;0.75;0.75;;;;;;;;;;5024288;28;20048;-70
2023/10/05 01:22:48;;;;;;;0.15;0.15;;;;;;;;;;5017257;28;20038;-71
2023/10/05 01:25:15;;;;;;;0.22;0.22;;;;;;;;;;5020937;28;20077;-70
2023/10/05 01:27:47;;;;;;;5.40;5.03;;;;;;;;;;5024326;28;20053;-71
2023/10/05 01:30:15;;;;;;;2.15;2.05;;;;;;;;;;5023303;28;20057;-70
2023/10/05 01:32:46;;;;;;;0.00;0.00;;;;;;;;;;5023992;28;20060;-70
2023/10/05 01:35:15;;;;;;;4.50;4.30;;;;;;;;;;5024854;28;20441;-71
2023/10/05 01:37:45;;;;;;;2.90;2.70;;;;;;;;;;5011737;28;20038;-70
2023/10/05 01:42:48;;;;;;;0.10;0.10;;;;;;;;;;5018530;28;20554;-70
2023/10/05 01:45:24;;;;;;;0.50;0.50;;;;;;;;;;5026542;28;20069;-71
2023/10/05 01:47:52;;;;;;;0.65;0.63;;;;;;;;;;5019148;28;20060;-71
2023/10/05 01:50:22;;;;;;;0.50;0.50;;;;;;;;;;5025278;28;20049;-71
2023/10/05 01:55:34;;;;;;;0.25;0.25;;;;;;;;;;5023511;28;20503;-70
2023/10/05 01:58:05;;;;;;;0.00;0.00;;;;;;;;;;5023141;28;20048;-70
2023/10/05 02:00:38;;;;;;;0.10;0.10;;;;;;;;;;5022391;28;20033;-71
2023/10/05 02:03:12;;;;;;;0.10;0.10;;;;;;;;;;5025477;28;20470;-70
2023/10/05 02:05:41;;;;;;;0.00;0.00;;;;;;;;;;5023479;28;20461;-71
2023/10/05 02:08:09;;;;;;;0.10;0.10;;;;;;;;;;5017588;28;20108;-71
2023/10/05 02:10:40;;;;;;;1.10;0.82;;;;;;;;;;5020308;28;20049;-71
2023/10/05 02:13:12;;;;;;;0.10;0.10;;;;;;;;;;5020743;28;20049;-70
2023/10/05 02:15:40;;;;;;;0.10;0.10;;;;;;;;;;5025103;28;20052;-71
2023/10/05 02:18:24;;;;;;;2.10;2.00;;;;;;;;;;5022425;28;20050;-71
2023/10/05 02:20:56;;;;;;;0.00;0.00;;;;;;;;;;5019386;28;20057;-70
2023/10/05 02:23:29;;;;;;;;;;;;;;;;;;5021600;28;20415;-70
2023/10/05 02:25:56;;;;;;;;;;;;;;;;;;5021989;28;19928;-71
2023/10/05 02:28:27;;;;;;;0.22;0.22;;;;;;;;;;5027281;28;19979;-70
2023/10/05 02:31:05;;;;;;;0.10;0.10;;;;;;;;;;5027116;28;20097;-70
2023/10/05 02:33:33;;;;;;;0.32;0.32;;;;;;;;;;5025824;28;20044;-71
2023/10/05 02:36:11;;;;;;;7.68;7.13;;;;;;;;;;5022872;28;20053;-71
2023/10/05 02:38:39;;;;;;;0.00;0.00;;;;;;;;;;5025336;28;20137;-70
2023/10/05 02:41:08;;;;;;;0.30;0.30;;;;;;;;;;5026111;28;20059;-71
2023/10/05 02:43:39;;;;;;;0.10;0.10;;;;;;;;;;5043151;28;20048;-71
2023/10/05 02:46:11;;;;;;;3.33;3.20;;;;;;;;;;5039081;23;20041;-72
2023/10/05 02:48:42;;;;;;;0.00;0.00;;;;;;;;;;5022492;28;20839;-73
2023/10/05 02:51:11;;;;;;;0.10;0.10;;;;;;;;;;5027885;28;20496;-71
2023/10/05 02:53:42;;;;;;;0.25;0.25;;;;;;;;;;5029001;28;20041;-71
2023/10/05 02:56:29;;;;;;;0.20;0.20;;;;;;;;;;5030418;28;20387;-71
2023/10/05 02:59:07;;;;;;;0.10;0.10;;;;;;;;;;5027510;28;20053;-71
2023/10/05 03:01:38;;;;;;;0.00;0.00;;;;;;;;;;5027774;28;20068;-71
2023/10/05 03:06:50;;;;;;;0.00;0.00;;;;;;;;;;5025798;28;20407;-71
2023/10/05 03:09:18;;;;;;;0.00;0.00;;;;;;;;;;5029388;28;20042;-72
2023/10/05 03:11:52;;;;;;;0.00;0.00;;;;;;;;;;5030585;28;20061;-73
2023/10/05 03:14:21;;;;;;;0.00;0.00;;;;;;;;;;5026325;28;20085;-73
2023/10/05 03:16:56;;;;;;;0.00;0.00;;;;;;;;;;5019802;28;20419;-73
2023/10/05 03:19:26;;;;;;;0.00;0.00;;;;;;;;;;5028949;28;20053;-73
2023/10/05 03:22:04;;;;;;;0.10;0.10;;;;;;;;;;5034292;28;20428;-73
2023/10/05 03:24:36;;;;;;;0.10;0.10;;;;;;;;;;5021607;28;20037;-73
2023/10/05 03:27:05;;;;;;;0.10;0.10;;;;;;;;;;5027041;28;20049;-73
2023/10/05 03:29:35;;;;;;;0.13;0.13;;;;;;;;;;5028221;28;20065;-73
2023/10/05 03:34:37;;;;;;;0.20;0.20;;;;;;;;;;5025737;28;20042;-72
2023/10/05 03:37:08;;;;;;;0.40;0.40;;;;;;;;;;5028521;28;20495;-73
2023/10/05 03:39:48;;;;;;;0.30;0.30;;;;;;;;;;5028474;28;20053;-73
2023/10/05 03:42:15;;;;;;;0.03;0.03;;;;;;;;;;5021101;28;20071;-72
2023/10/05 03:44:43;;;;;;;0.15;0.15;;;;;;;;;;5020187;28;20064;-73
2023/10/05 03:47:11;;;;;;;0.00;0.00;;;;;;;;;;5017664;28;20049;-73
2023/10/05 03:49:56;;;;;;;0.10;0.10;;;;;;;;;;5024422;28;20327;-73
2023/10/05 03:52:29;;;;;;;1.17;1.17;;;;;;;;;;5010219;28;20046;-73
2023/10/05 03:55:01;;;;;;;0.90;0.90;;;;;;;;;;5021605;28;20356;-73
2023/10/05 03:57:31;;;;;;;0.40;0.40;;;;;;;;;;5019579;28;20463;-73
2023/10/05 04:00:06;;;;;;;0.13;0.10;;;;;;;;;;5026097;28;20049;-73
2023/10/05 04:02:38;;;;;;;0.10;0.10;;;;;;;;;;5023964;28;20046;-73
2023/10/05 04:05:09;;;;;;;0.10;0.10;;;;;;;;;;5020934;28;20045;-72
2023/10/05 04:07:37;;;;;;;0.10;0.10;;;;;;;;;;5019375;28;20056;-73
2023/10/05 04:10:06;;;;;;;6.40;6.03;;;;;;;;;;5021393;28;20111;-73
2023/10/05 04:12:34;;;;;;;0.10;0.10;;;;;;;;;;5021696;28;20072;-73
2023/10/05 04:15:11;;;;;;;0.30;0.30;;;;;;;;;;5028298;28;20050;-71
2023/10/05 04:17:39;;;;;;;0.25;0.25;;;;;;;;;;5019618;28;20045;-71
2023/10/05 04:20:17;;;;;;;0.05;0.05;;;;;;;;;;5023741;28;20128;-71
2023/10/05 04:22:47;;;;;;;0.08;0.08;;;;;;;;;;5027806;28;20131;-72
2023/10/05 04:25:16;;;;;;;0.35;0.35;;;;;;;;;;5029530;28;20053;-72
2023/10/05 04:27:46;;;;;;;0.00;0.00;;;;;;;;;;5029880;28;20111;-72
2023/10/05 04:30:18;;;;;;;0.10;0.10;;;;;;;;;;5023484;28;20055;-72
2023/10/05 04:32:45;;;;;;;0.10;0.10;;;;;;;;;;5021974;28;20340;-72
2023/10/05 04:35:26;;;;;;;0.10;0.10;;;;;;;;;;5024183;28;20188;-72
2023/10/05 04:37:54;;;;;;;1.45;1.35;;;;;;;;;;5023839;28;20055;-71
2023/10/05 04:40:24;;;;;;;0.00;0.00;;;;;;;;;;5029417;28;20060;-72
2023/10/05 04:42:58;;;;;;;6.00;5.57;;;;;;;;;;5028145;28;20060;-71
2023/10/05 04:45:27;;;;;;;0.05;0.05;;;;;;;;;;5023113;28;20136;-71
2023/10/05 04:47:58;;;;;;;0.08;0.08;;;;;;;;;;5026348;28;20046;-71
2023/10/05 04:50:26;;;;;;;4.00;3.80;;;;;;;;;;5021740;28;20053;-71
2023/10/05 04:52:55;;;;;;;0.10;0.10;;;;;;;;;;5025704;28;20040;-72
2023/10/05 04:55:31;;;;;;;0.25;0.25;;;;;;;;;;5026334;28;20467;-72
2023/10/05 04:58:22;;;;;;;0.10;0.10;;;;;;;;;;5021966;28;20052;-72
2023/10/05 05:08:38;;;;;;;0.75;0.73;;;;;;;;;;5025526;28;20037;-72
2023/10/05 05:11:11;;;;;;;0.20;0.20;;;;;;;;;;5027829;28;20045;-73
2023/10/05 05:13:39;;;;;;;0.10;0.10;;;;;;;;;;5019672;28;20726;-72
2023/10/05 05:16:08;;;;;;;0.03;0.03;;;;;;;;;;5022449;28;20465;-72
2023/10/05 05:18:38;;;;;;;0.10;0.10;;;;;;;;;;5019312;28;20357;-72
2023/10/05 05:21:07;;;;;;;0.40;0.40;;;;;;;;;;5025885;28;20103;-73
2023/10/05 05:23:35;;;;;;;0.30;0.30;;;;;;;;;;5019823;28;20049;-72
2023/10/05 05:26:03;;;;;;;0.13;0.13;;;;;;;;;;5025675;28;20057;-72
2023/10/05 05:28:31;;;;;;;19.70;18.15;;;;;;;;;;5025835;28;20458;-72
2023/10/05 05:31:11;;;;;;;0.22;0.20;;;;;;;;;;5026382;28;20048;-72
2023/10/05 05:33:39;;;;;;;2.00;1.65;;;;;;;;;;5025386;28;20045;-72
2023/10/05 05:36:11;;;;;;;0.43;0.43;;;;;;;;;;5020789;28;20042;-72
2023/10/05 05:38:39;;;;;;;0.15;0.15;;;;;;;;;;5023452;28;20037;-73
2023/10/05 05:41:11;;;;;;;30.63;28.67;;;;;;;;;;5023032;28;20095;-73
2023/10/05 05:43:42;;;;;;;10.52;9.77;;;;;;;;;;5026206;28;20084;-72
2023/10/05 05:46:11;;;;;;;10.02;9.45;;;;;;;;;;5022193;28;20136;-72
2023/10/05 05:48:42;;;;;;;0.20;0.20;;;;;;;;;;5022981;28;20519;-72
2023/10/05 05:51:17;;;;;;;12.20;10.70;;;;;;;;;;5027004;28;20406;-72
2023/10/05 05:53:48;;;;;;;0.00;0.00;;;;;;;;;;5024330;28;20061;-72
2023/10/05 05:56:25;;;;;;;0.88;0.73;;;;;;;;;;5028960;28;20117;-73
2023/10/05 05:58:52;;;;;;;1.05;0.95;;;;;;;;;;5029946;28;20132;-73
2023/10/05 06:01:20;;;;;;;0.20;0.20;;;;;;;;;;5029909;28;20053;-71
2023/10/05 06:03:48;;;;;;;0.47;0.30;;;;;;;;;;5022317;28;20128;-73
2023/10/05 06:06:18;;;;;;;0.20;0.20;;;;;;;;;;5018735;28;20111;-72
2023/10/05 06:08:46;;;;;;;0.52;0.52;;;;;;;;;;5021683;28;20049;-73
2023/10/05 06:11:14;;;;;;;0.30;0.30;;;;;;;;;;5030356;28;20251;-72
2023/10/05 06:13:45;;;;;;;0.35;0.35;;;;;;;;;;5027579;28;20038;-73
2023/10/05 06:16:14;;;;;;;16.53;15.37;;;;;;;;;;5029376;28;20682;-72
2023/10/05 06:18:43;;;;;;;0.00;0.00;;;;;;;;;;5025175;28;20068;-73
2023/10/05 06:21:11;;;;;;;0.15;0.15;;;;;;;;;;5027113;28;20072;-72
2023/10/05 06:23:38;;;;;;;16.45;15.43;;;;;;;;;;5027931;28;20392;-73
2023/10/05 06:26:06;;;;;;;11.35;10.52;;;;;;;;;;5023907;28;20495;-73
2023/10/05 06:28:34;;;;;;;0.60;0.60;;;;;;;;;;5026111;28;20104;-73
2023/10/05 06:31:05;;;;;;;39.33;36.03;;;;;;;;;;5026649;28;20034;-72
2023/10/05 06:33:33;;;;;;;0.35;0.35;;;;;;;;;;5023546;28;20095;-72
2023/10/05 06:36:03;;;;;;;3.33;3.20;;;;;;;;;;5029231;28;20037;-73
2023/10/05 06:38:30;;;;;;;6.70;6.38;;;;;;;;;;5024416;28;20053;-72
2023/10/05 06:40:58;;;;;;;3.97;1.75;;;;;;;;;;5026161;28;20526;-73
2023/10/05 06:43:26;;;;;;;0.40;0.40;;;;;;;;;;5023220;28;20093;-73
2023/10/05 06:45:54;;;;;;;0.10;0.10;;;;;;;;;;5017603;28;20053;-72
2023/10/05 06:48:21;;;;;;;3.35;3.20;;;;;;;;;;5024915;28;20132;-72
2023/10/05 06:50:49;;;;;;;0.10;0.10;;;;;;;;;;5025037;28;20033;-72
2023/10/05 06:53:17;;;;;;;0.10;0.10;;;;;;;;;;5024189;28;20944;-72
2023/10/05 06:55:45;;;;;;;0.15;0.15;;;;;;;;;;5022535;28;20060;-73
2023/10/05 06:58:13;;;;;;;0.10;0.03;;;;;;;;;;5023258;28;20052;-73
2023/10/05 07:00:40;;;;;;;0.00;0.00;;;;;;;;;;5022228;28;20049;-73
2023/10/05 07:03:10;;;;;;;0.10;0.10;;;;;;;;;;5024264;28;20267;-73
2023/10/05 07:05:39;;;;;;;0.35;0.35;;;;;;;;;;5038274;28;20064;-73
2023/10/05 07:08:07;;;;;;;6.70;6.22;;;;;;;;;;5027165;28;20537;-73
2023/10/05 07:10:35;;;;;;;5.30;5.05;;;;;;;;;;5027078;28;20121;-72
2023/10/05 07:13:04;;;;;;;0.10;0.10;;;;;;;;;;5022432;28;20052;-73
2023/10/05 07:15:33;;;;;;;10.60;9.95;;;;;;;;;;5024858;28;20084;-72
2023/10/05 07:18:01;;;;;;;0.77;0.77;;;;;;;;;;5024340;28;20108;-73
2023/10/05 07:20:28;;;;;;;10.00;9.05;;;;;;;;;;5025056;28;20049;-72
2023/10/05 07:22:59;;;;;;;4.50;4.28;;;;;;;;;;5018249;28;20155;-72
2023/10/05 07:25:26;;;;;;;1.00;1.00;;;;;;;;;;5024199;28;20049;-75
2023/10/05 07:27:55;;;;;;;0.52;0.52;;;;;;;;;;5027887;28;20061;-73
2023/10/05 07:30:23;;;;;;;0.10;0.10;;;;;;;;;;5024665;28;20080;-73
2023/10/05 07:32:50;;;;;;;9.13;8.20;;;;;;;;;;5021952;28;20038;-70
2023/10/05 07:35:38;;;;;;;0.10;0.10;;;;;;;;;;5027536;28;20030;-70
2023/10/05 07:38:06;;;;;;;0.10;0.10;;;;;;;;;;5026464;28;20397;-71
2023/10/05 07:40:39;;;;;;;5.53;5.22;;;;;;;;;;5023889;28;20049;-72
2023/10/05 07:43:07;;;;;;;0.20;0.20;;;;;;;;;;5024681;28;20075;-72
2023/10/05 07:45:34;;;;;;;0.20;0.20;;;;;;;;;;5025881;28;20104;-72
2023/10/05 07:48:04;;;;;;;0.10;0.10;;;;;;;;;;5021267;28;20045;-73
2023/10/05 07:50:32;;;;;;;33.10;30.08;;;;;;;;;;5020602;28;20045;-72
2023/10/05 07:53:00;;;;;;;0.15;0.15;;;;;;;;;;5017125;28;20463;-72
2023/10/05 07:55:27;;;;;;;6.60;6.22;;;;;;;;;;5026383;28;20053;-72
2023/10/05 07:57:55;;;;;;;0.20;0.20;;;;;;;;;;5027121;28;20161;-72
2023/10/05 08:00:22;;;;;;;0.65;0.65;;;;;;;;;;5020384;28;20052;-72
2023/10/05 08:02:50;;;;;;;7.43;7.03;;;;;;;;;;5026413;28;20088;-72
2023/10/05 08:05:18;;;;;;;0.15;0.15;;;;;;;;;;5026815;28;20084;-72
2023/10/05 08:07:46;;;;;;;1.33;1.23;;;;;;;;;;5026945;28;20368;-72
2023/10/05 08:10:15;;;;;;;2.38;2.25;;;;;;;;;;5023894;28;20546;-73
2023/10/05 08:12:43;;;;;;;0.22;0.20;;;;;;;;;;5023426;28;20142;-73
2023/10/05 08:15:18;;;;;;;0.50;0.50;;;;;;;;;;5023536;28;20033;-72
2023/10/05 08:17:48;;;;;;;0.25;0.25;;;;;;;;;;5020693;28;20148;-72
2023/10/05 08:20:17;;;;;;;0.47;0.47;;;;;;;;;;5022049;28;20085;-72
2023/10/05 08:22:50;;;;;;;0.10;0.10;;;;;;;;;;5038692;28;20422;-72
2023/10/05 08:25:18;;;;;;;0.20;0.10;;;;;;;;;;5019747;28;20045;-72
2023/10/05 08:27:49;;;;;;;6.32;5.93;;;;;;;;;;5027952;28;20507;-72
2023/10/05 08:30:16;;;;;;;0.30;0.30;;;;;;;;;;5026855;28;20050;-74
2023/10/05 08:32:47;;;;;;;0.47;0.47;;;;;;;;;;5021979;28;20050;-72
2023/10/05 08:35:18;;;;;;;1.10;1.00;;;;;;;;;;5024096;28;20045;-72
2023/10/05 08:37:49;;;;;;;22.67;20.30;;;;;;;;;;5027047;28;20171;-71
2023/10/05 08:40:37;;;;;;;0.10;0.10;;;;;;;;;;5018147;28;20054;-71
2023/10/05 08:43:16;;;;;;;0.10;0.10;;;;;;;;;;5018586;28;20045;-72
2023/10/05 08:45:51;;;;;;;0.15;0.15;;;;;;;;;;5024460;28;20049;-71
2023/10/05 08:48:34;;;;;;;0.20;0.20;;;;;;;;;;5024525;28;20041;-72
2023/10/05 08:51:10;;;;;;;0.00;0.00;;;;;;;;;;5018442;28;20056;-73
2023/10/05 08:53:59;;;;;;;32.97;30.77;;;;;;;;;;5022972;28;20076;-72
2023/10/05 08:56:27;;;;;;;4.85;1.88;;;;;;;;;;5024640;28;20080;-72
2023/10/05 08:58:54;;;;;;;20.48;19.08;;;;;;;;;;5023859;28;20095;-72
2023/10/05 09:01:29;;;;;;;4.85;4.55;;;;;;;;;;5020300;28;20139;-69
2023/10/05 09:04:11;;;;;;;38.53;35.13;;;;;;;;;;5013833;28;20519;-71
2023/10/05 09:06:52;;;;;;;1.17;1.08;;;;;;;;;;5027108;28;20417;-71
2023/10/05 09:09:37;;;;;;;14.95;13.98;;;;;;;;;;5022026;28;20110;-71
2023/10/05 09:12:34;;;;;;;18.85;17.80;;;;;;;;;;5016070;28;20052;-72
2023/10/05 09:17:58;;;;;;;0.15;0.15;;;;;;;;;;5023951;28;20049;-72
2023/10/05 09:20:35;;;;;;;8.10;7.57;;;;;;;;;;5019451;28;20463;-72
2023/10/05 09:23:07;;;;;;;28.45;25.70;;;;;;;;;;5021237;28;20053;-70
2023/10/05 09:25:35;;;;;;;0.10;0.10;;;;;;;;;;5018023;28;20145;-72
2023/10/05 09:28:12;;;;;;;5.20;4.95;;;;;;;;;;5025717;28;20523;-70
2023/10/05 09:31:07;;;;;;;17.35;16.40;;;;;;;;;;5024136;28;20495;-70
2023/10/05 09:33:46;;;;;;;1.40;1.30;;;;;;;;;;5014214;28;20045;-71
2023/10/05 09:36:19;;;;;;;3.15;2.95;;;;;;;;;;5020470;28;20395;-71
2023/10/05 09:38:47;;;;;;;0.68;0.68;;;;;;;;;;5015205;28;20129;-71
2023/10/05 09:41:19;;;;;;;0.10;0.10;;;;;;;;;;5017935;28;20053;-72
2023/10/05 09:43:58;;;;;;;0.15;0.15;;;;;;;;;;5017650;28;20157;-71
2023/10/05 09:46:27;;;;;;;0.45;0.45;;;;;;;;;;5022193;28;20050;-70
2023/10/05 09:48:55;;;;;;;3.08;2.80;;;;;;;;;;5016043;28;20060;-69
2023/10/05 09:51:23;;;;;;;1.05;1.05;;;;;;;;;;5022337;28;20125;-71
2023/10/05 09:53:52;;;;;;;1.17;1.10;;;;;;;;;;5024809;28;20045;-71
2023/10/05 09:56:20;;;;;;;0.75;0.70;;;;;;;;;;5018590;28;20487;-70
2023/10/05 09:59:15;;;;;;;0.30;0.30;;;;;;;;;;5025652;28;20119;-73
2023/10/05 10:01:45;;;;;;;0.40;0.40;;;;;;;;;;5021306;28;20057;-70
2023/10/05 10:04:24;;;;;;;0.00;0.00;;;;;;;;;;5030521;28;20057;-71
2023/10/05 10:06:53;;;;;;;0.17;0.17;;;;;;;;;;5027880;28;20084;-71
2023/10/05 10:09:26;;;;;;;0.35;0.35;;;;;;;;;;5027226;28;20050;-72
2023/10/05 10:11:59;;;;;;;0.10;0.10;;;;;;;;;;5030685;28;20052;-70
2023/10/05 10:14:29;;;;;;;0.80;0.80;;;;;;;;;;5042839;28;20045;-69
2023/10/05 10:17:00;;;;;;;0.08;0.08;;;;;;;;;;5029694;28;20095;-70
2023/10/05 10:19:43;;;;;;;0.25;0.20;;;;;;;;;;5024296;28;20073;-70
2023/10/05 10:22:12;;;;;;;0.75;0.75;;;;;;;;;;5020141;28;20511;-70
2023/10/05 10:24:40;;;;;;;0.70;0.70;;;;;;;;;;5018989;28;20426;-70
2023/10/05 10:27:08;;;;;;;0.10;0.10;;;;;;;;;;5015476;28;20376;-71
2023/10/05 10:29:44;;;;;;;0.10;0.10;;;;;;;;;;5013787;28;20037;-70
2023/10/05 10:32:18;;;;;;;0.15;0.10;;;;;;;;;;5024964;28;20041;-70
2023/10/05 10:34:55;;;;;;;0.22;0.22;;;;;;;;;;5018265;28;20046;-69
2023/10/05 10:37:39;;;;;;;0.13;0.13;;;;;;;;;;5022472;28;20054;-70
2023/10/05 10:40:25;;;;;;;0.10;0.10;;;;;;;;;;5019949;28;20463;-69
2023/10/05 10:45:42;;;;;;;7.78;7.25;;;;;;;;;;5025337;28;20764;-70
2023/10/05 10:50:47;;;;;;;0.65;0.20;;;;;;;;;;5028550;28;20065;-69
2023/10/05 10:53:17;;;;;;;0.00;0.00;;;;;;;;;;5028609;28;20049;-71
2023/10/05 10:55:46;;;;;;;0.00;0.00;;;;;;;;;;5020907;28;20538;-70
2023/10/05 10:58:16;;;;;;;0.85;0.85;;;;;;;;;;5027173;28;20124;-69
2023/10/05 11:01:02;;;;;;;1.77;1.25;;;;;;;;;;5024355;28;20057;-69
2023/10/05 11:03:36;;;;;;;12.50;11.50;;;;;;;;;;5023082;28;20054;-69
2023/10/05 11:06:04;;;;;;;0.00;0.00;;;;;;;;;;5014128;28;20054;-70
2023/10/05 11:08:40;;;;;;;0.63;0.43;;;;;;;;;;5026800;28;20538;-70
2023/10/05 11:11:09;;;;;;;0.10;0.03;;;;;;;;;;5024163;28;20410;-70
2023/10/05 11:13:43;;;;;;;0.10;0.10;;;;;;;;;;5027235;28;20049;-71
2023/10/05 11:16:11;;;;;;;0.10;0.10;;;;;;;;;;5020137;28;20052;-71
2023/10/05 11:18:50;;;;;;;0.00;0.00;;;;;;;;;;5023279;28;20076;-70
2023/10/05 11:21:23;;;;;;;0.38;0.38;;;;;;;;;;5028019;28;20522;-71
2023/10/05 11:23:58;;;;;;;0.32;0.32;;;;;;;;;;5025085;28;20050;-70
2023/10/05 11:26:28;;;;;;;0.10;0.10;;;;;;;;;;5024076;28;20393;-70
2023/10/05 11:29:15;;;;;;;0.00;0.00;;;;;;;;;;5017807;28;20065;-71
2023/10/05 11:31:44;;;;;;;3.30;2.92;;;;;;;;;;5021950;28;20495;-70
2023/10/05 11:34:39;;;;;;;0.15;0.15;;;;;;;;;;5026001;28;20049;-71
2023/10/05 11:37:27;;;;;;;0.10;0.10;;;;;;;;;;5023156;28;20046;-70
2023/10/05 11:39:58;;;;;;;0.00;0.00;;;;;;;;;;5024259;28;20485;-71
2023/10/05 11:42:33;;;;;;;22.83;20.85;;;;;;;;;;5024161;28;20155;-70
2023/10/05 11:45:04;;;;;;;0.98;0.95;;;;;;;;;;5026223;28;20404;-70
2023/10/05 11:47:41;;;;;;;0.00;0.00;;;;;;;;;;5020089;28;20081;-70
2023/10/05 11:50:25;;;;;;;0.00;0.00;;;;;;;;;;5036799;28;20052;-70
2023/10/05 11:52:53;;;;;;;0.00;0.00;;;;;;;;;;5023586;28;20473;-70
2023/10/05 11:55:21;;;;;;;0.00;0.00;;;;;;;;;;5024853;28;20145;-71
2023/10/05 11:57:49;;;;;;;0.00;0.00;;;;;;;;;;5026910;28;20077;-70
2023/10/05 12:00:21;;;;;;;0.25;0.10;;;;;;;;;;5022050;28;20056;-68
2023/10/05 12:02:50;;;;;;;0.00;0.00;;;;;;;;;;5024423;28;20049;-70
2023/10/05 12:05:18;;;;;;;0.00;0.00;;;;;;;;;;5021766;28;20131;-69
2023/10/05 12:07:45;;;;;;;0.00;0.00;;;;;;;;;;5026287;28;20057;-71
2023/10/05 12:10:13;;;;;;;0.00;0.00;;;;;;;;;;5027308;28;20103;-70
2023/10/05 12:12:43;;;;;;;0.08;0.08;;;;;;;;;;5023285;28;20099;-70
2023/10/05 12:15:17;;;;;;;0.00;0.00;;;;;;;;;;5027128;28;20384;-70
2023/10/05 12:17:45;;;;;;;0.00;0.00;;;;;;;;;;5023338;28;20168;-70
2023/10/05 12:20:15;;;;;;;0.00;0.00;;;;;;;;;;5025698;28;20064;-70
2023/10/05 12:22:44;;;;;;;0.20;0.20;;;;;;;;;;5019255;28;20111;-70
2023/10/05 12:25:14;;;;;;;0.00;0.00;;;;;;;;;;5023642;28;20053;-71
2023/10/05 12:27:43;;;;;;;0.73;0.55;;;;;;;;;;5027702;28;20049;-70
2023/10/05 12:30:15;;;;;;;0.10;0.10;;;;;;;;;;5024682;28;20430;-69
2023/10/05 12:32:44;;;;;;;0.55;0.55;;;;;;;;;;5024071;28;20395;-68
2023/10/05 12:35:13;;;;;;;0.20;0.20;;;;;;;;;;5022979;28;20369;-70
2023/10/05 12:37:41;;;;;;;0.00;0.00;;;;;;;;;;5023272;28;20091;-71
2023/10/05 12:40:19;;;;;;;0.10;0.10;;;;;;;;;;5021623;28;20072;-70
2023/10/05 12:42:53;;;;;;;0.00;0.00;;;;;;;;;;5019182;28;20062;-71
2023/10/05 12:45:24;;;;;;;0.00;0.00;;;;;;;;;;5021197;28;20053;-70
2023/10/05 12:47:57;;;;;;;5.25;4.80;;;;;;;;;;5025446;28;20069;-70
2023/10/05 12:50:27;;;;;;;0.00;0.00;;;;;;;;;;5023779;28;20508;-71
2023/10/05 12:52:56;;;;;;;0.00;0.00;;;;;;;;;;5021431;28;20050;-71
2023/10/05 12:55:24;;;;;;;0.93;0.43;;;;;;;;;;5025359;28;20049;-71
2023/10/05 12:57:52;;;;;;;0.00;0.00;;;;;;;;;;5025479;28;20045;-71
2023/10/05 13:00:39;;;;;;;0.55;0.43;;;;;;;;;;5025020;28;20132;-70
2023/10/05 13:03:10;;;;;;;0.22;0.22;;;;;;;;;;5017106;28;20455;-71
2023/10/05 13:05:46;;;;;;;0.00;0.00;;;;;;;;;;5021623;28;20054;-71
2023/10/05 13:08:16;;;;;;;0.10;0.10;;;;;;;;;;5025955;28;20052;-70
2023/10/05 13:10:44;;;;;;;0.47;0.32;;;;;;;;;;5015601;28;20041;-70
2023/10/05 13:13:20;;;;;;;0.08;0.08;;;;;;;;;;5025731;28;20043;-71
2023/10/05 13:15:50;;;;;;;0.00;0.00;;;;;;;;;;5019477;28;20050;-71
2023/10/05 13:18:18;;;;;;;0.00;0.00;;;;;;;;;;5021800;28;20121;-71
2023/10/05 13:20:48;;;;;;;0.00;0.00;;;;;;;;;;5021735;28;20060;-70
2023/10/05 13:23:19;;;;;;;0.00;0.00;;;;;;;;;;5026162;28;21445;-71
2023/10/05 13:25:49;;;;;;;0.00;0.00;;;;;;;;;;5025070;28;20041;-71
2023/10/05 13:28:24;;;;;;;0.00;0.00;;;;;;;;;;5016223;28;20057;-70
2023/10/05 13:30:55;;;;;;;0.00;0.00;;;;;;;;;;5024046;28;20041;-71
2023/10/05 13:33:28;;;;;;;0.00;0.00;;;;;;;;;;5020691;28;20103;-71
2023/10/05 13:35:57;;;;;;;0.00;0.00;;;;;;;;;;5029326;28;20098;-70
2023/10/05 13:38:28;;;;;;;0.00;0.00;;;;;;;;;;5030318;28;20051;-70
2023/10/05 13:43:34;;;;;;;0.00;0.00;;;;;;;;;;5035246;28;20049;-71
2023/10/05 13:46:22;;;;;;;0.00;0.00;;;;;;;;;;5028889;28;20046;-71
2023/10/05 13:49:01;;;;;;;0.25;0.17;;;;;;;;;;5028211;28;20045;-70
2023/10/05 13:51:33;;;;;;;0.00;0.00;;;;;;;;;;5021314;28;20540;-70
2023/10/05 13:54:06;;;;;;;0.00;0.00;;;;;;;;;;5023435;28;20049;-70
2023/10/05 13:56:34;;;;;;;0.00;0.00;;;;;;;;;;5027848;28;20477;-70
2023/10/05 13:59:01;;;;;;;0.00;0.00;;;;;;;;;;5023290;28;20045;-70
2023/10/05 14:01:39;;;;;;;0.10;0.10;;;;;;;;;;5018882;28;20099;-70
2023/10/05 14:04:12;;;;;;;0.00;0.00;;;;;;;;;;5018802;28;20144;-69
2023/10/05 14:06:39;;;;;;;0.00;0.00;;;;;;;;;;5024172;28;20072;-70
2023/10/05 14:09:10;;;;;;;0.10;0.10;;;;;;;;;;5024303;28;20060;-70
2023/10/05 14:11:38;;;;;;;0.00;0.00;;;;;;;;;;5022258;28;20050;-70
2023/10/05 14:14:07;;;;;;;0.00;0.00;;;;;;;;;;5021542;28;20049;-71
2023/10/05 14:17:00;;;;;;;0.00;0.00;;;;;;;;;;5022537;28;20061;-70
2023/10/05 14:19:25;;;;;;;0.00;0.00;;;;;;;;;;5023558;28;20099;-70
2023/10/05 14:21:55;;;;;;;0.10;0.10;;;;;;;;;;5018870;28;20500;-70
2023/10/05 14:24:24;;;;;;;0.55;0.55;;;;;;;;;;5020257;28;20527;-70
2023/10/05 14:26:54;;;;;;;0.00;0.00;;;;;;;;;;5034389;28;20068;-70
2023/10/05 14:29:34;;;;;;;0.25;0.25;;;;;;;;;;5036260;28;20115;-69
2023/10/05 14:32:04;;;;;;;0.00;0.00;;;;;;;;;;5029327;28;20396;-70
2023/10/05 14:34:33;;;;;;;0.65;0.65;;;;;;;;;;5021464;28;20068;-70
2023/10/05 14:37:04;;;;;;;0.00;0.00;;;;;;;;;;5021135;28;20120;-70
2023/10/05 14:39:36;;;;;;;0.00;0.00;;;;;;;;;;5034223;28;20046;-70
2023/10/05 14:42:06;;;;;;;0.00;0.00;;;;;;;;;;5033281;28;20549;-70
2023/10/05 14:44:37;;;;;;;0.00;0.00;;;;;;;;;;5033396;28;20056;-70
2023/10/05 14:47:11;;;;;;;0.00;0.00;;;;;;;;;;5041436;23;20057;-72
2023/10/05 14:49:40;;;;;;;0.22;0.22;;;;;;;;;;5029011;28;20052;-72
2023/10/05 14:52:08;;;;;;;0.00;0.00;;;;;;;;;;5023140;28;20042;-72
2023/10/05 14:54:36;;;;;;;0.00;0.00;;;;;;;;;;5026675;28;20111;-72
2023/10/05 14:57:03;;;;;;;0.00;0.00;;;;;;;;;;5027805;28;20511;-71
2023/10/05 14:59:31;;;;;;;0.00;0.00;;;;;;;;;;5020282;28;20314;-71
2023/10/05 15:01:58;;;;;;;0.00;0.00;;;;;;;;;;5017479;28;20053;-72
2023/10/05 15:04:26;;;;;;;0.10;0.10;;;;;;;;;;5017636;28;20261;-71
2023/10/05 15:06:56;;;;;;;0.00;0.00;;;;;;;;;;5020462;28;20075;-72
2023/10/05 15:09:25;;;;;;;0.10;0.10;;;;;;;;;;5022519;28;20410;-71
2023/10/05 15:11:53;;;;;;;0.93;0.80;;;;;;;;;;5022664;28;20076;-71
2023/10/05 15:14:22;;;;;;;0.00;0.00;;;;;;;;;;5022964;28;20133;-72
2023/10/05 15:16:52;;;;;;;0.00;0.00;;;;;;;;;;5021193;28;20115;-71
2023/10/05 15:19:20;;;;;;;0.00;0.00;;;;;;;;;;5024183;28;20045;-71
2023/10/05 15:21:48;;;;;;;0.00;0.00;;;;;;;;;;5025298;28;20140;-71
2023/10/05 15:24:16;;;;;;;0.05;0.05;;;;;;;;;;5024745;28;20107;-71
2023/10/05 15:26:43;;;;;;;0.00;0.00;;;;;;;;;;5021810;28;20073;-71
2023/10/05 15:29:13;;;;;;;0.00;0.00;;;;;;;;;;5024732;28;20525;-71
2023/10/05 15:31:44;;;;;;;0.00;0.00;;;;;;;;;;5027672;28;20064;-72
2023/10/05 15:34:12;;;;;;;0.22;0.22;;;;;;;;;;5027278;28;20155;-71
2023/10/05 15:36:40;;;;;;;0.00;0.00;;;;;;;;;;5028178;28;20049;-71
2023/10/05 15:39:10;;;;;;;0.00;0.00;;;;;;;;;;5015258;28;20073;-72
2023/10/05 15:41:38;;;;;;;0.00;0.00;;;;;;;;;;5024306;28;20042;-71
2023/10/05 15:44:07;;;;;;;0.30;0.30;;;;;;;;;;5024103;28;20487;-72
2023/10/05 15:46:36;;;;;;;0.22;0.20;;;;;;;;;;5026074;28;20053;-72
2023/10/05 15:49:04;;;;;;;1.65;0.57;;;;;;;;;;5027891;28;20053;-72